createdAt,value
2019-06-26T00:00:23.763Z,9.50
2019-06-26T00:01:23.753Z,9.60
2019-06-26T00:02:23.739Z,9.90
2019-06-26T00:03:23.733Z,9.30
2019-06-26T00:04:23.719Z,11.30
2019-06-26T00:05:23.720Z,10.50
2019-06-26T00:06:23.704Z,8.70
2019-06-26T00:07:23.685Z,11.10
2019-06-26T00:08:23.679Z,10.00
2019-06-26T00:09:23.667Z,9.60
2019-06-26T00:10:23.659Z,9.80
2019-06-26T00:11:23.653Z,9.20
2019-06-26T00:12:23.635Z,9.40
2019-06-26T00:13:26.680Z,9.70
2019-06-26T00:14:23.645Z,9.80
2019-06-26T00:15:23.625Z,10.80
2019-06-26T00:16:23.588Z,9.60
2019-06-26T00:17:23.582Z,9.60
2019-06-26T00:18:23.567Z,9.20
2019-06-26T00:19:23.556Z,12.20
2019-06-26T00:20:23.549Z,10.10
2019-06-26T00:21:23.535Z,10.00
2019-06-26T00:22:23.526Z,9.90
2019-06-26T00:23:23.511Z,9.40
2019-06-26T00:24:23.507Z,10.40
2019-06-26T00:25:23.489Z,11.60
2019-06-26T00:26:23.479Z,9.40
2019-06-26T00:27:23.469Z,10.00
2019-06-26T00:28:23.473Z,10.00
2019-06-26T00:29:23.455Z,9.20
2019-06-26T00:30:23.439Z,13.00
2019-06-26T00:31:23.431Z,11.00
2019-06-26T00:32:23.416Z,9.80
2019-06-26T00:33:23.407Z,9.40
2019-06-26T00:34:23.399Z,9.60
2019-06-26T00:35:23.382Z,9.20
2019-06-26T00:36:23.373Z,9.50
2019-06-26T00:37:23.360Z,9.30
2019-06-26T00:38:23.357Z,11.10
2019-06-26T00:39:23.342Z,10.40
2019-06-26T00:40:23.332Z,10.30
2019-06-26T00:41:23.336Z,9.80
2019-06-26T00:42:23.307Z,10.40
2019-06-26T00:43:23.301Z,11.80
2019-06-26T00:44:23.284Z,11.40
2019-06-26T00:45:23.275Z,9.90
2019-06-26T00:46:23.272Z,12.00
2019-06-26T00:47:23.256Z,9.50
2019-06-26T00:48:23.250Z,10.00
2019-06-26T00:49:23.236Z,11.40
2019-06-26T00:50:23.221Z,10.70
2019-06-26T00:51:23.210Z,11.20
2019-06-26T00:52:23.200Z,9.90
2019-06-26T00:53:23.191Z,11.30
2019-06-26T00:54:23.179Z,10.50
2019-06-26T00:55:23.172Z,10.10
2019-06-26T00:56:23.164Z,10.80
2019-06-26T00:57:23.149Z,10.50
2019-06-26T00:58:23.136Z,11.70
2019-06-26T00:59:23.129Z,12.00
2019-06-26T01:00:23.114Z,10.90
2019-06-26T01:01:23.103Z,10.00
2019-06-26T01:02:23.092Z,10.10
2019-06-26T01:03:23.085Z,10.20
2019-06-26T01:04:23.071Z,10.60
2019-06-26T01:05:23.086Z,10.20
2019-06-26T01:06:23.050Z,10.40
2019-06-26T01:07:23.037Z,11.20
2019-06-26T01:08:23.026Z,10.60
2019-06-26T01:09:23.022Z,11.50
2019-06-26T01:10:23.016Z,10.40
2019-06-26T01:11:22.995Z,10.90
2019-06-26T01:12:22.988Z,14.80
2019-06-26T01:13:22.985Z,10.40
2019-06-26T01:14:22.966Z,11.20
2019-06-26T01:15:22.952Z,10.70
2019-06-26T01:16:22.943Z,10.20
2019-06-26T01:17:22.935Z,12.10
2019-06-26T01:18:22.939Z,10.40
2019-06-26T01:19:22.911Z,11.50
2019-06-26T01:20:22.899Z,10.20
2019-06-26T01:21:22.888Z,11.20
2019-06-26T01:22:22.874Z,10.70
2019-06-26T01:23:22.872Z,11.40
2019-06-26T01:24:22.857Z,10.70
2019-06-26T01:25:22.844Z,11.60
2019-06-26T01:26:22.833Z,11.40
2019-06-26T01:27:22.824Z,11.10
2019-06-26T01:28:22.814Z,10.60
2019-06-26T01:29:22.801Z,10.70
2019-06-26T01:30:22.793Z,10.60
2019-06-26T01:31:22.796Z,10.50
2019-06-26T01:32:22.769Z,10.60
2019-06-26T01:33:22.775Z,11.80
2019-06-26T01:34:22.745Z,12.40
2019-06-26T01:35:22.737Z,12.40
2019-06-26T01:36:22.729Z,11.70
2019-06-26T01:37:22.713Z,10.90
2019-06-26T01:38:22.698Z,11.50
2019-06-26T01:39:22.710Z,11.80
2019-06-26T01:40:22.682Z,12.00
2019-06-26T01:41:22.884Z,10.50
2019-06-26T01:42:22.667Z,11.10
2019-06-26T01:43:22.661Z,12.20
2019-06-26T01:44:22.640Z,11.10
2019-06-26T01:45:22.627Z,11.50
2019-06-26T01:46:22.617Z,12.80
2019-06-26T01:47:22.611Z,15.50
2019-06-26T01:48:22.594Z,11.60
2019-06-26T01:49:22.584Z,11.30
2019-06-26T01:50:22.578Z,12.50
2019-06-26T01:51:22.565Z,11.90
2019-06-26T01:52:22.550Z,12.10
2019-06-26T01:53:22.546Z,10.90
2019-06-26T01:54:22.541Z,10.30
2019-06-26T01:55:22.517Z,11.10
2019-06-26T01:56:22.517Z,12.10
2019-06-26T01:57:22.513Z,11.40
2019-06-26T01:58:22.489Z,12.50
2019-06-26T01:59:22.477Z,11.00
2019-06-26T02:00:22.475Z,11.40
2019-06-26T02:01:22.461Z,11.60
2019-06-26T02:02:22.443Z,12.30
2019-06-26T02:03:22.428Z,12.90
2019-06-26T02:04:22.420Z,10.70
2019-06-26T02:05:22.409Z,13.10
2019-06-26T02:06:22.399Z,12.20
2019-06-26T02:07:22.392Z,12.60
2019-06-26T02:08:22.383Z,12.10
2019-06-26T02:09:22.408Z,11.80
2019-06-26T02:10:22.362Z,12.40
2019-06-26T02:11:22.344Z,11.30
2019-06-26T02:12:22.333Z,12.10
2019-06-26T02:13:22.348Z,13.50
2019-06-26T02:14:30.914Z,13.00
2019-06-26T02:15:23.298Z,11.60
2019-06-26T02:16:22.301Z,10.80
2019-06-26T02:17:22.280Z,11.80
2019-06-26T02:18:22.276Z,12.40
2019-06-26T02:19:22.260Z,12.60
2019-06-26T02:20:22.299Z,12.00
2019-06-26T02:21:22.239Z,13.80
2019-06-26T02:22:22.227Z,12.70
2019-06-26T02:23:22.216Z,11.60
2019-06-26T02:24:22.220Z,12.60
2019-06-26T02:25:22.197Z,12.50
2019-06-26T02:26:22.185Z,12.40
2019-06-26T02:27:22.173Z,13.60
2019-06-26T02:28:22.161Z,11.00
2019-06-26T02:29:22.152Z,12.90
2019-06-26T02:30:22.141Z,13.00
2019-06-26T02:31:22.136Z,13.10
2019-06-26T02:32:22.117Z,12.70
2019-06-26T02:33:22.114Z,13.00
2019-06-26T02:34:22.100Z,12.60
2019-06-26T02:35:22.093Z,13.90
2019-06-26T02:36:22.074Z,13.80
2019-06-26T02:37:22.062Z,13.70
2019-06-26T02:38:22.057Z,13.20
2019-06-26T02:39:22.040Z,14.80
2019-06-26T02:40:22.032Z,13.90
2019-06-26T02:41:22.021Z,12.00
2019-06-26T02:42:22.010Z,13.50
2019-06-26T02:43:22.001Z,13.60
2019-06-26T02:44:21.990Z,14.10
2019-06-26T02:45:21.974Z,13.70
2019-06-26T02:46:21.963Z,13.60
2019-06-26T02:47:21.993Z,14.10
2019-06-26T02:48:21.944Z,11.60
2019-06-26T02:49:21.933Z,14.30
2019-06-26T02:50:21.971Z,13.30
2019-06-26T02:51:21.911Z,13.20
2019-06-26T02:52:21.901Z,12.50
2019-06-26T02:53:21.886Z,12.40
2019-06-26T02:54:21.882Z,14.40
2019-06-26T02:55:21.867Z,13.90
2019-06-26T02:56:21.856Z,11.90
2019-06-26T02:57:21.846Z,13.00
2019-06-26T02:58:21.837Z,16.10
2019-06-26T02:59:21.877Z,12.60
2019-06-26T03:00:21.818Z,14.30
2019-06-26T03:01:21.807Z,13.10
2019-06-26T03:02:21.794Z,14.90
2019-06-26T03:03:21.781Z,14.30
2019-06-26T03:04:21.771Z,14.40
2019-06-26T03:05:21.757Z,13.40
2019-06-26T03:06:21.747Z,17.10
2019-06-26T03:07:21.735Z,14.00
2019-06-26T03:08:21.737Z,13.70
2019-06-26T03:09:21.713Z,14.30
2019-06-26T03:10:21.710Z,13.10
2019-06-26T03:11:21.699Z,13.90
2019-06-26T03:12:21.683Z,13.40
2019-06-26T03:13:21.669Z,12.90
2019-06-26T03:14:21.659Z,14.50
2019-06-26T03:15:21.649Z,13.40
2019-06-26T03:16:21.639Z,13.20
2019-06-26T03:17:21.627Z,14.70
2019-06-26T03:18:21.614Z,12.50
2019-06-26T03:19:21.613Z,13.50
2019-06-26T03:20:21.593Z,14.20
2019-06-26T03:21:21.586Z,14.40
2019-06-26T03:22:21.585Z,15.10
2019-06-26T03:23:21.567Z,14.30
2019-06-26T03:24:21.549Z,15.00
2019-06-26T03:25:21.546Z,13.30
2019-06-26T03:26:21.528Z,13.90
2019-06-26T03:27:21.516Z,15.00
2019-06-26T03:28:21.507Z,13.20
2019-06-26T03:29:21.532Z,15.80
2019-06-26T03:30:21.490Z,14.50
2019-06-26T03:31:21.475Z,15.00
2019-06-26T03:32:21.463Z,16.50
2019-06-26T03:33:21.467Z,16.10
2019-06-26T03:34:21.449Z,18.30
2019-06-26T03:35:21.431Z,15.60
2019-06-26T03:36:21.420Z,16.20
2019-06-26T03:37:21.406Z,14.70
2019-06-26T03:38:21.400Z,17.90
2019-06-26T03:39:21.386Z,16.30
2019-06-26T03:40:21.379Z,17.20
2019-06-26T03:41:21.364Z,16.20
2019-06-26T03:42:21.358Z,16.70
2019-06-26T03:43:21.349Z,15.40
2019-06-26T03:44:21.339Z,15.20
2019-06-26T03:45:26.222Z,16.40
2019-06-26T03:46:22.387Z,16.80
2019-06-26T03:47:21.312Z,18.30
2019-06-26T03:48:21.287Z,17.40
2019-06-26T03:49:21.279Z,15.50
2019-06-26T03:50:21.273Z,15.60
2019-06-26T03:51:21.256Z,18.10
2019-06-26T03:52:21.242Z,16.30
2019-06-26T03:53:21.231Z,17.00
2019-06-26T03:54:21.222Z,16.50
2019-06-26T03:55:21.211Z,13.60
2019-06-26T03:56:21.203Z,14.00
2019-06-26T03:57:21.194Z,15.70
2019-06-26T03:58:21.182Z,15.20
2019-06-26T03:59:21.172Z,15.20
2019-06-26T04:00:21.216Z,16.80
2019-06-26T04:01:21.142Z,15.70
2019-06-26T04:02:21.129Z,18.80
2019-06-26T04:03:21.122Z,15.60
2019-06-26T04:04:21.110Z,14.80
2019-06-26T04:05:21.120Z,15.20
2019-06-26T04:06:21.086Z,14.80
2019-06-26T04:07:21.077Z,17.80
2019-06-26T04:08:21.064Z,15.10
2019-06-26T04:09:21.053Z,15.20
2019-06-26T04:10:21.042Z,14.40
2019-06-26T04:11:21.042Z,15.90
2019-06-26T04:12:21.022Z,15.10
2019-06-26T04:13:21.009Z,18.40
2019-06-26T04:14:20.999Z,15.90
2019-06-26T04:15:20.989Z,16.50
2019-06-26T04:16:20.978Z,16.50
2019-06-26T04:17:20.967Z,18.30
2019-06-26T04:18:21.004Z,17.90
2019-06-26T04:19:20.947Z,18.50
2019-06-26T04:20:20.935Z,16.90
2019-06-26T04:21:20.939Z,16.90
2019-06-26T04:22:20.914Z,17.10
2019-06-26T04:23:20.902Z,16.00
2019-06-26T04:24:20.892Z,14.50
2019-06-26T04:25:20.883Z,15.10
2019-06-26T04:26:20.874Z,16.70
2019-06-26T04:27:20.859Z,17.20
2019-06-26T04:28:20.849Z,16.00
2019-06-26T04:29:20.849Z,16.70
2019-06-26T04:30:20.830Z,16.50
2019-06-26T04:31:20.816Z,17.00
2019-06-26T04:32:20.805Z,16.40
2019-06-26T04:33:20.795Z,16.80
2019-06-26T04:34:20.785Z,20.40
2019-06-26T04:35:21.096Z,18.00
2019-06-26T04:36:20.769Z,18.70
2019-06-26T04:37:20.751Z,16.00
2019-06-26T04:38:20.740Z,18.20
2019-06-26T04:39:20.732Z,17.90
2019-06-26T04:40:20.791Z,18.40
2019-06-26T04:41:20.715Z,20.40
2019-06-26T04:42:20.698Z,16.90
2019-06-26T04:43:20.687Z,17.30
2019-06-26T04:44:20.677Z,17.60
2019-06-26T04:45:20.665Z,18.30
2019-06-26T04:46:20.657Z,16.70
2019-06-26T04:47:20.645Z,17.80
2019-06-26T04:48:20.632Z,18.80
2019-06-26T04:49:20.623Z,18.40
2019-06-26T04:50:20.613Z,18.90
2019-06-26T04:51:20.601Z,19.20
2019-06-26T04:52:20.590Z,17.90
2019-06-26T04:53:20.581Z,16.30
2019-06-26T04:54:20.574Z,17.70
2019-06-26T04:55:20.559Z,17.70
2019-06-26T04:56:20.550Z,20.40
2019-06-26T04:57:20.536Z,18.00
2019-06-26T04:58:20.526Z,18.40
2019-06-26T04:59:20.563Z,18.00
2019-06-26T05:00:21.848Z,16.50
2019-06-26T05:01:20.496Z,16.70
2019-06-26T05:02:20.486Z,17.00
2019-06-26T05:03:20.475Z,18.20
2019-06-26T05:04:20.463Z,19.20
2019-06-26T05:05:20.453Z,16.20
2019-06-26T05:06:20.441Z,18.00
2019-06-26T05:07:20.431Z,18.60
2019-06-26T05:08:20.424Z,17.40
2019-06-26T05:09:20.545Z,18.40
2019-06-26T05:10:20.399Z,17.20
2019-06-26T05:11:20.391Z,17.20
2019-06-26T05:12:20.380Z,21.00
2019-06-26T05:13:20.368Z,18.00
2019-06-26T05:14:20.366Z,18.10
2019-06-26T05:15:20.345Z,18.80
2019-06-26T05:16:20.727Z,17.10
2019-06-26T05:17:20.325Z,17.50
2019-06-26T05:18:20.313Z,18.10
2019-06-26T05:19:20.301Z,18.60
2019-06-26T05:20:20.291Z,17.80
2019-06-26T05:21:20.283Z,19.10
2019-06-26T05:22:20.271Z,16.50
2019-06-26T05:23:20.266Z,17.30
2019-06-26T05:24:20.249Z,18.70
2019-06-26T05:25:20.236Z,19.10
2019-06-26T05:26:20.228Z,17.70
2019-06-26T05:27:20.217Z,17.10
2019-06-26T05:28:20.210Z,18.60
2019-06-26T05:29:20.199Z,19.00
2019-06-26T05:30:20.184Z,17.40
2019-06-26T05:31:20.184Z,17.80
2019-06-26T05:32:20.166Z,18.40
2019-06-26T05:33:20.158Z,18.40
2019-06-26T05:34:20.147Z,17.70
2019-06-26T05:35:20.135Z,19.10
2019-06-26T05:36:20.133Z,19.10
2019-06-26T05:37:20.115Z,17.20
2019-06-26T05:38:20.102Z,20.20
2019-06-26T05:39:20.122Z,20.00
2019-06-26T05:40:20.101Z,16.60
2019-06-26T05:41:20.074Z,18.00
2019-06-26T05:42:20.061Z,18.30
2019-06-26T05:43:20.056Z,18.30
2019-06-26T05:44:20.055Z,16.70
2019-06-26T05:45:20.035Z,18.00
2019-06-26T05:46:30.519Z,16.30
2019-06-26T05:47:22.157Z,17.00
2019-06-26T05:48:20.009Z,18.90
2019-06-26T05:49:19.989Z,17.10
2019-06-26T05:50:19.979Z,17.00
2019-06-26T05:51:19.968Z,16.60
2019-06-26T05:52:19.954Z,18.20
2019-06-26T05:53:19.944Z,16.60
2019-06-26T05:54:19.933Z,16.80
2019-06-26T05:55:19.919Z,17.80
2019-06-26T05:56:19.908Z,17.10
2019-06-26T05:57:19.897Z,17.90
2019-06-26T05:58:19.885Z,17.60
2019-06-26T05:59:19.896Z,17.10
2019-06-26T06:00:19.871Z,16.30
2019-06-26T06:01:19.858Z,16.80
2019-06-26T06:02:19.845Z,19.80
2019-06-26T06:03:19.832Z,17.50
2019-06-26T06:04:19.823Z,15.90
2019-06-26T06:05:19.817Z,16.80
2019-06-26T06:06:19.802Z,16.40
2019-06-26T06:07:19.791Z,15.90
2019-06-26T06:08:19.780Z,17.20
2019-06-26T06:09:19.770Z,16.80
2019-06-26T06:10:19.764Z,15.50
2019-06-26T06:11:19.753Z,16.20
2019-06-26T06:12:19.742Z,17.80
2019-06-26T06:13:19.729Z,16.10
2019-06-26T06:14:19.721Z,16.10
2019-06-26T06:15:19.716Z,15.80
2019-06-26T06:16:19.700Z,16.90
2019-06-26T06:17:19.690Z,16.30
2019-06-26T06:18:19.681Z,15.70
2019-06-26T06:19:19.674Z,16.20
2019-06-26T06:20:19.664Z,15.80
2019-06-26T06:21:19.646Z,16.20
2019-06-26T06:22:19.645Z,17.80
2019-06-26T06:23:19.625Z,15.40
2019-06-26T06:24:19.684Z,15.10
2019-06-26T06:25:19.606Z,15.20
2019-06-26T06:26:19.595Z,15.90
2019-06-26T06:27:19.607Z,15.40
2019-06-26T06:28:19.577Z,15.60
2019-06-26T06:29:19.579Z,14.90
2019-06-26T06:30:19.557Z,16.70
2019-06-26T06:31:19.551Z,17.10
2019-06-26T06:32:19.536Z,16.50
2019-06-26T06:33:19.530Z,16.40
2019-06-26T06:34:19.521Z,15.80
2019-06-26T06:35:19.507Z,14.60
2019-06-26T06:36:19.496Z,15.40
2019-06-26T06:37:19.498Z,16.50
2019-06-26T06:38:19.473Z,16.00
2019-06-26T06:39:19.468Z,15.00
2019-06-26T06:40:19.464Z,15.00
2019-06-26T06:41:19.450Z,15.10
2019-06-26T06:42:19.435Z,15.20
2019-06-26T06:43:19.435Z,15.40
2019-06-26T06:44:19.413Z,15.00
2019-06-26T06:45:19.410Z,15.30
2019-06-26T06:46:19.394Z,15.30
2019-06-26T06:47:19.385Z,14.50
2019-06-26T06:48:19.370Z,15.40
2019-06-26T06:49:19.368Z,14.80
2019-06-26T06:50:19.361Z,14.40
2019-06-26T06:51:19.338Z,15.30
2019-06-26T06:52:19.328Z,14.30
2019-06-26T06:53:19.322Z,16.80
2019-06-26T06:54:19.310Z,14.20
2019-06-26T06:55:19.347Z,14.80
2019-06-26T06:56:19.292Z,14.50
2019-06-26T06:57:19.286Z,14.30
2019-06-26T06:58:19.269Z,15.00
2019-06-26T06:59:19.263Z,15.10
2019-06-26T07:00:19.260Z,14.20
2019-06-26T07:01:19.242Z,14.10
2019-06-26T07:02:19.239Z,13.90
2019-06-26T07:03:19.251Z,13.60
2019-06-26T07:04:19.278Z,16.70
2019-06-26T07:05:19.198Z,14.30
2019-06-26T07:06:19.210Z,13.00
2019-06-26T07:07:19.286Z,13.50
2019-06-26T07:08:19.173Z,13.50
2019-06-26T07:09:19.163Z,13.50
2019-06-26T07:10:19.150Z,13.20
2019-06-26T07:11:19.140Z,12.60
2019-06-26T07:12:20.884Z,13.40
2019-06-26T07:13:19.119Z,13.20
2019-06-26T07:14:19.110Z,12.60
2019-06-26T07:15:19.097Z,13.20
2019-06-26T07:16:19.152Z,13.30
2019-06-26T07:17:20.870Z,12.90
2019-06-26T07:18:19.075Z,13.20
2019-06-26T07:19:19.061Z,13.10
2019-06-26T07:20:19.045Z,13.10
2019-06-26T07:21:19.040Z,12.60
2019-06-26T07:22:19.033Z,12.80
2019-06-26T07:23:19.014Z,13.10
2019-06-26T07:24:19.007Z,12.80
2019-06-26T07:25:19.008Z,13.50
2019-06-26T07:26:18.987Z,12.80
2019-06-26T07:27:18.976Z,13.90
2019-06-26T07:28:19.033Z,13.70
2019-06-26T07:29:18.989Z,12.30
2019-06-26T07:30:18.952Z,12.90
2019-06-26T07:31:18.942Z,13.30
2019-06-26T07:32:18.923Z,12.50
2019-06-26T07:33:18.918Z,11.60
2019-06-26T07:34:18.903Z,12.30
2019-06-26T07:35:18.887Z,12.70
2019-06-26T07:36:18.901Z,12.30
2019-06-26T07:37:18.865Z,11.90
2019-06-26T07:38:18.854Z,11.90
2019-06-26T07:39:18.877Z,12.90
2019-06-26T07:40:18.838Z,11.80
2019-06-26T07:41:18.833Z,14.00
2019-06-26T07:42:18.853Z,12.20
2019-06-26T07:43:18.811Z,11.50
2019-06-26T07:44:18.798Z,11.40
2019-06-26T07:45:18.784Z,12.20
2019-06-26T07:46:18.774Z,11.40
2019-06-26T07:47:23.477Z,11.40
2019-06-26T07:48:19.764Z,11.70
2019-06-26T07:49:18.743Z,11.30
2019-06-26T07:50:18.734Z,11.20
2019-06-26T07:51:18.728Z,11.10
2019-06-26T07:52:18.714Z,11.70
2019-06-26T07:53:18.706Z,11.20
2019-06-26T07:54:18.693Z,10.90
2019-06-26T07:55:18.696Z,11.70
2019-06-26T07:56:18.686Z,11.70
2019-06-26T07:57:18.672Z,12.30
2019-06-26T07:58:18.685Z,13.20
2019-06-26T07:59:18.647Z,11.00
2019-06-26T08:00:18.637Z,11.60
2019-06-26T08:01:18.642Z,11.40
2019-06-26T08:02:18.621Z,10.60
2019-06-26T08:03:18.610Z,13.50
2019-06-26T08:04:18.598Z,11.60
2019-06-26T08:05:18.588Z,11.50
2019-06-26T08:06:18.580Z,11.00
2019-06-26T08:07:18.576Z,11.20
2019-06-26T08:08:18.558Z,10.80
2019-06-26T08:09:18.550Z,13.50
2019-06-26T08:10:18.541Z,10.90
2019-06-26T08:11:18.533Z,11.60
2019-06-26T08:12:18.542Z,11.00
2019-06-26T08:13:18.513Z,11.60
2019-06-26T08:14:18.507Z,11.20
2019-06-26T08:15:18.494Z,10.80
2019-06-26T08:16:18.486Z,11.00
2019-06-26T08:17:18.486Z,10.70
2019-06-26T08:18:18.570Z,10.80
2019-06-26T08:19:18.458Z,10.00
2019-06-26T08:20:18.443Z,10.30
2019-06-26T08:21:18.430Z,10.50
2019-06-26T08:22:18.420Z,10.40
2019-06-26T08:23:18.421Z,10.70
2019-06-26T08:24:18.450Z,12.60
2019-06-26T08:25:18.397Z,9.50
2019-06-26T08:26:18.382Z,10.90
2019-06-26T08:27:18.376Z,10.60
2019-06-26T08:28:18.362Z,10.10
2019-06-26T08:29:18.349Z,10.60
2019-06-26T08:30:18.448Z,11.20
2019-06-26T08:31:18.334Z,11.10
2019-06-26T08:32:18.381Z,10.80
2019-06-26T08:33:18.316Z,11.60
2019-06-26T08:34:18.322Z,11.30
2019-06-26T08:35:18.384Z,10.80
2019-06-26T08:36:18.289Z,10.70
2019-06-26T08:37:18.369Z,10.90
2019-06-26T08:38:18.266Z,10.80
2019-06-26T08:39:18.262Z,10.90
2019-06-26T08:40:18.438Z,11.10
2019-06-26T08:41:18.238Z,13.70
2019-06-26T08:42:18.228Z,10.70
2019-06-26T08:43:18.223Z,10.50
2019-06-26T08:44:18.220Z,10.60
2019-06-26T08:45:18.202Z,11.00
2019-06-26T08:46:18.189Z,11.50
2019-06-26T08:47:18.184Z,11.40
2019-06-26T08:48:37.886Z,10.60
2019-06-26T08:49:25.675Z,11.30
2019-06-26T08:50:19.159Z,10.90
2019-06-26T08:51:18.152Z,11.30
2019-06-26T08:52:18.143Z,10.20
2019-06-26T08:53:18.127Z,10.60
2019-06-26T08:54:18.113Z,10.00
2019-06-26T08:55:18.103Z,10.40
2019-06-26T08:56:18.096Z,9.90
2019-06-26T08:57:18.091Z,10.10
2019-06-26T08:58:18.072Z,9.30
2019-06-26T08:59:18.065Z,9.80
2019-06-26T09:00:18.456Z,10.30
2019-06-26T09:01:18.049Z,9.80
2019-06-26T09:02:18.037Z,9.40
2019-06-26T09:03:18.085Z,9.90
2019-06-26T09:04:18.023Z,10.10
2019-06-26T09:05:18.012Z,10.30
2019-06-26T09:06:18.242Z,9.70
2019-06-26T09:07:18.019Z,9.80
2019-06-26T09:08:18.174Z,11.60
2019-06-26T09:09:17.973Z,10.10
2019-06-26T09:10:18.554Z,12.60
2019-06-26T09:11:17.957Z,10.40
2019-06-26T09:12:17.944Z,9.80
2019-06-26T09:13:17.997Z,9.20
2019-06-26T09:14:17.951Z,9.70
2019-06-26T09:15:17.920Z,9.70
2019-06-26T09:16:17.973Z,8.80
2019-06-26T09:17:17.910Z,8.80
2019-06-26T09:18:31.041Z,8.70
2019-06-26T09:19:20.880Z,8.90
2019-06-26T09:20:17.871Z,9.20
2019-06-26T09:21:18.321Z,9.10
2019-06-26T09:22:17.886Z,9.10
2019-06-26T09:23:17.842Z,9.40
2019-06-26T09:24:17.850Z,9.40
2019-06-26T09:25:21.978Z,8.90
2019-06-26T09:26:17.816Z,9.10
2019-06-26T09:27:17.807Z,9.30
2019-06-26T09:28:17.844Z,9.20
2019-06-26T09:29:17.789Z,8.20
2019-06-26T09:30:17.785Z,8.90
2019-06-26T09:31:17.774Z,7.70
2019-06-26T09:32:17.759Z,8.10
2019-06-26T09:33:17.757Z,7.80
2019-06-26T09:34:17.743Z,7.60
2019-06-26T09:35:17.740Z,9.50
2019-06-26T09:36:17.775Z,7.80
2019-06-26T09:37:17.774Z,7.80
2019-06-26T09:38:17.710Z,7.10
2019-06-26T09:39:17.700Z,7.60
2019-06-26T09:40:17.690Z,7.60
2019-06-26T09:41:17.751Z,7.30
2019-06-26T09:42:19.764Z,7.30
2019-06-26T09:43:17.679Z,7.60
2019-06-26T09:44:17.653Z,7.60
2019-06-26T09:45:17.708Z,7.90
2019-06-26T09:46:17.637Z,7.40
2019-06-26T09:47:17.633Z,7.40
2019-06-26T09:48:17.650Z,8.10
2019-06-26T09:49:17.608Z,7.10
2019-06-26T09:50:17.668Z,7.60
2019-06-26T09:51:17.663Z,7.70
2019-06-26T09:52:17.748Z,6.90
2019-06-26T09:53:17.569Z,7.60
2019-06-26T09:54:17.599Z,7.60
2019-06-26T09:55:17.555Z,7.90
2019-06-26T09:56:17.545Z,7.40
2019-06-26T09:57:17.542Z,7.50
2019-06-26T09:58:17.525Z,7.10
2019-06-26T09:59:17.523Z,7.40
2019-06-26T10:00:17.528Z,7.20
2019-06-26T10:01:17.503Z,7.30
2019-06-26T10:02:17.486Z,8.00
2019-06-26T10:03:17.476Z,8.00
2019-06-26T10:04:17.517Z,7.70
2019-06-26T10:05:17.500Z,7.60
2019-06-26T10:06:17.451Z,7.50
2019-06-26T10:07:17.444Z,7.20
2019-06-26T10:08:17.436Z,8.00
2019-06-26T10:09:17.436Z,7.30
2019-06-26T10:10:17.434Z,7.70
2019-06-26T10:11:17.411Z,8.20
2019-06-26T10:12:17.399Z,8.00
2019-06-26T10:13:17.392Z,8.00
2019-06-26T10:14:17.387Z,6.90
2019-06-26T10:15:17.386Z,7.70
2019-06-26T10:16:17.358Z,6.80
2019-06-26T10:17:17.362Z,7.60
2019-06-26T10:18:17.339Z,7.20
2019-06-26T10:19:17.337Z,6.30
2019-06-26T10:20:17.318Z,6.50
2019-06-26T10:21:17.314Z,8.30
2019-06-26T10:22:17.304Z,8.30
2019-06-26T10:23:17.305Z,7.10
2019-06-26T10:24:17.310Z,6.80
2019-06-26T10:25:17.280Z,8.70
2019-06-26T10:26:17.274Z,7.00
2019-06-26T10:27:17.256Z,6.50
2019-06-26T10:28:17.249Z,7.90
2019-06-26T10:29:17.278Z,6.80
2019-06-26T10:30:17.241Z,7.00
2019-06-26T10:31:18.446Z,6.70
2019-06-26T10:32:17.215Z,6.90
2019-06-26T10:33:17.197Z,7.00
2019-06-26T10:34:17.191Z,7.50
2019-06-26T10:35:17.178Z,6.90
2019-06-26T10:36:17.174Z,6.70
2019-06-26T10:37:17.159Z,6.50
2019-06-26T10:38:17.155Z,6.70
2019-06-26T10:39:17.146Z,6.40
2019-06-26T10:40:17.135Z,7.30
2019-06-26T10:41:17.141Z,7.20
2019-06-26T10:42:17.114Z,7.00
2019-06-26T10:43:17.104Z,7.50
2019-06-26T10:44:17.095Z,7.10
2019-06-26T10:45:17.086Z,6.60
2019-06-26T10:46:17.089Z,7.00
2019-06-26T10:47:17.074Z,7.50
2019-06-26T10:48:17.071Z,6.80
2019-06-26T10:49:26.885Z,7.30
2019-06-26T10:50:18.040Z,7.00
2019-06-26T10:51:17.043Z,7.30
2019-06-26T10:52:17.023Z,7.40
2019-06-26T10:53:17.026Z,7.50
2019-06-26T10:54:17.021Z,8.30
2019-06-26T10:55:16.997Z,10.00
2019-06-26T10:56:17.017Z,7.60
2019-06-26T10:57:16.989Z,9.10
2019-06-26T10:58:16.987Z,7.20
2019-06-26T10:59:16.967Z,7.70
2019-06-26T11:00:16.950Z,8.20
2019-06-26T11:01:16.947Z,7.30
2019-06-26T11:02:17.194Z,7.40
2019-06-26T11:03:16.924Z,7.50
2019-06-26T11:04:16.913Z,7.60
2019-06-26T11:05:16.905Z,8.20
2019-06-26T11:06:16.896Z,6.80
2019-06-26T11:07:16.896Z,8.70
2019-06-26T11:08:16.884Z,7.30
2019-06-26T11:09:16.873Z,6.80
2019-06-26T11:10:16.858Z,9.00
2019-06-26T11:11:16.852Z,7.00
2019-06-26T11:12:16.856Z,7.30
2019-06-26T11:13:16.851Z,7.00
2019-06-26T11:14:16.824Z,7.40
2019-06-26T11:15:16.818Z,6.80
2019-06-26T11:16:16.805Z,7.00
2019-06-26T11:17:16.797Z,7.20
2019-06-26T11:18:16.785Z,6.20
2019-06-26T11:19:16.775Z,6.70
2019-06-26T11:20:16.767Z,7.10
2019-06-26T11:21:16.764Z,6.50
2019-06-26T11:22:16.750Z,6.30
2019-06-26T11:23:16.739Z,6.00
2019-06-26T11:24:16.734Z,6.40
2019-06-26T11:25:16.721Z,6.90
2019-06-26T11:26:16.715Z,6.90
2019-06-26T11:27:16.702Z,7.20
2019-06-26T11:28:16.695Z,6.20
2019-06-26T11:29:16.689Z,7.80
2019-06-26T11:30:16.677Z,6.10
2019-06-26T11:31:16.666Z,6.50
2019-06-26T11:32:16.659Z,6.90
2019-06-26T11:33:16.648Z,7.20
2019-06-26T11:34:16.668Z,8.20
2019-06-26T11:35:16.632Z,6.40
2019-06-26T11:36:16.619Z,6.30
2019-06-26T11:37:16.612Z,6.30
2019-06-26T11:38:16.606Z,6.60
2019-06-26T11:39:16.611Z,6.10
2019-06-26T11:40:16.589Z,6.20
2019-06-26T11:41:16.575Z,6.20
2019-06-26T11:42:16.590Z,8.40
2019-06-26T11:43:16.563Z,6.40
2019-06-26T11:44:16.546Z,6.50
2019-06-26T11:45:16.545Z,6.60
2019-06-26T11:46:16.533Z,6.90
2019-06-26T11:47:16.519Z,6.30
2019-06-26T11:48:16.537Z,6.70
2019-06-26T11:49:16.508Z,6.80
2019-06-26T11:50:16.582Z,7.10
2019-06-26T11:51:16.480Z,7.80
2019-06-26T11:52:16.474Z,8.00
2019-06-26T11:53:16.464Z,6.20
2019-06-26T11:54:16.455Z,6.60
2019-06-26T11:55:16.446Z,6.50
2019-06-26T11:56:16.439Z,7.10
2019-06-26T11:57:16.430Z,6.80
2019-06-26T11:58:16.428Z,7.70
2019-06-26T11:59:16.409Z,7.50
2019-06-26T12:00:16.398Z,8.10
2019-06-26T12:01:16.393Z,7.80
2019-06-26T12:02:16.379Z,6.70
2019-06-26T12:03:16.404Z,7.20
2019-06-26T12:04:16.360Z,7.50
2019-06-26T12:05:16.377Z,8.70
2019-06-26T12:06:19.222Z,8.30
2019-06-26T12:07:16.332Z,7.40
2019-06-26T12:08:18.487Z,9.20
2019-06-26T12:09:16.335Z,7.80
2019-06-26T12:10:16.305Z,9.00
2019-06-26T12:11:16.312Z,8.00
2019-06-26T12:12:16.285Z,8.10
2019-06-26T12:13:16.293Z,7.50
2019-06-26T12:14:16.270Z,8.30
2019-06-26T12:15:16.257Z,7.00
2019-06-26T12:16:16.254Z,10.60
2019-06-26T12:17:16.277Z,7.10
2019-06-26T12:18:16.270Z,9.10
2019-06-26T12:19:19.056Z,8.10
2019-06-26T12:20:19.665Z,8.90
2019-06-26T12:21:16.209Z,8.40
2019-06-26T12:22:16.192Z,8.60
2019-06-26T12:23:16.184Z,8.80
2019-06-26T12:24:16.188Z,7.50
2019-06-26T12:25:16.165Z,10.10
2019-06-26T12:26:16.174Z,8.00
2019-06-26T12:27:16.150Z,7.20
2019-06-26T12:28:16.141Z,8.80
2019-06-26T12:29:16.193Z,7.50
2019-06-26T12:30:16.119Z,7.40
2019-06-26T12:31:16.112Z,6.90
2019-06-26T12:32:16.102Z,7.30
2019-06-26T12:33:16.093Z,8.30
2019-06-26T12:34:16.084Z,7.00
2019-06-26T12:35:16.078Z,8.10
2019-06-26T12:36:16.268Z,8.40
2019-06-26T12:37:16.058Z,7.90
2019-06-26T12:38:16.045Z,9.40
2019-06-26T12:39:16.038Z,8.00
2019-06-26T12:40:16.026Z,8.10
2019-06-26T12:41:16.018Z,7.40
2019-06-26T12:42:16.078Z,8.40
2019-06-26T12:43:16.012Z,9.40
2019-06-26T12:44:15.991Z,10.30
2019-06-26T12:45:15.988Z,8.20
2019-06-26T12:46:18.213Z,9.60
2019-06-26T12:47:15.963Z,10.20
2019-06-26T12:48:16.547Z,7.60
2019-06-26T12:49:15.954Z,8.00
2019-06-26T12:50:15.939Z,9.60
2019-06-26T12:51:15.926Z,7.90
2019-06-26T12:52:17.099Z,7.50
2019-06-26T12:53:15.908Z,8.30
2019-06-26T12:54:15.902Z,7.60
2019-06-26T12:55:15.892Z,7.40
2019-06-26T12:56:15.880Z,7.60
2019-06-26T12:57:15.879Z,8.70
2019-06-26T12:58:19.690Z,10.00
2019-06-26T12:59:15.853Z,8.50
2019-06-26T13:00:15.845Z,6.60
2019-06-26T13:01:15.852Z,7.10